Virac, Philippines
Current Conditions -  °F | °C
As of 12:00 AM on Friday 31 Oct 2014 (Local Time) from RPLL Reporting Station
Broken Clouds Broken Clouds  
Wind Chill: 81°   Ceiling: 10000
Heat Index: 86°   Visibility: 6mi
Dew Point: 75°   Wind: 2mph
Humidity: 84%   Direction: 140°SE
Pressure: 29.85"   Gusts: NA
Location:  13.58°N, 124.23°E
Report Text: RPLL 301600Z 14002KT 9999 SCT025 BKN100 27/24 Q1011 NOSIG RMK A2985
Loading
Personal Weather Stations






























Interactive Weather Map
Tropical Storm Tracking
New forecast layout! Learn more

10-Day Weather Forecast

Advertisements
Track Severe Weather on mobile